Glenbrook, Connecticut
Current Conditions -  °F | °C
As of 4:56 AM on Thursday 23 Oct 2014 (Local Time) from KHPN Reporting Station
Light Rain Light Rain  
Wind Chill: 50°   Ceiling: 5000
Heat Index: 50°   Visibility: 6mi
Dew Point: 46°   Wind: 18mph
Humidity: 86%   Direction: 340°NNW
Pressure: 29.68"   Gusts: 25mph
Location:  41.0697°N, 73.522°W
Report Text: KHPN 230856Z 34016G22KT 6SM -RA BR SCT020 OVC050 10/08 A2968 RMK AO2 SLP051 P0004 60009 T01000078 56008
Loading
Personal Weather Stations






























Interactive Weather Map
Tropical Storm Tracking
New forecast layout! Learn more

10-Day Weather Forecast

Advertisements
Track Severe Weather on mobile